createdAt,value
2017-03-27T00:00:30.663Z,0
2017-03-27T00:01:11.228Z,0
2017-03-27T00:01:51.798Z,0
2017-03-27T00:02:32.361Z,0
2017-03-27T00:03:12.927Z,0
2017-03-27T00:03:53.504Z,0
2017-03-27T00:04:34.068Z,0
2017-03-27T00:05:14.651Z,0
2017-03-27T00:05:55.228Z,0
2017-03-27T00:06:35.810Z,0
2017-03-27T00:07:16.393Z,0
2017-03-27T00:07:56.960Z,0
2017-03-27T00:08:37.534Z,0
2017-03-27T00:10:50.328Z,0
2017-03-27T00:11:30.902Z,0
2017-03-27T00:12:11.530Z,0
2017-03-27T00:12:52.093Z,0
2017-03-27T00:13:32.674Z,0
2017-03-27T00:14:13.307Z,0
2017-03-27T00:14:53.880Z,0
2017-03-27T00:15:34.480Z,0
2017-03-27T00:16:15.043Z,0
2017-03-27T00:16:55.619Z,0
2017-03-27T00:17:36.199Z,0
2017-03-27T00:18:16.774Z,0
2017-03-27T00:18:57.335Z,0
2017-03-27T00:19:37.933Z,0
2017-03-27T00:20:18.555Z,0
2017-03-27T00:20:59.118Z,0
2017-03-27T00:21:39.703Z,0
2017-03-27T00:22:20.269Z,0
2017-03-27T00:23:00.841Z,0
2017-03-27T00:23:41.417Z,0
2017-03-27T00:24:21.996Z,0
2017-03-27T00:25:02.596Z,0
2017-03-27T00:25:43.159Z,0
2017-03-27T00:26:23.760Z,0
2017-03-27T00:27:04.339Z,0
2017-03-27T00:27:44.906Z,0
2017-03-27T00:28:25.477Z,0
2017-03-27T00:29:06.043Z,0
2017-03-27T00:29:46.621Z,0
2017-03-27T00:30:27.207Z,0
2017-03-27T00:31:07.781Z,0
2017-03-27T00:31:48.352Z,0
2017-03-27T00:32:28.935Z,0
2017-03-27T00:33:09.555Z,0
2017-03-27T00:33:50.148Z,0
2017-03-27T00:34:30.728Z,0
2017-03-27T00:35:11.292Z,0
2017-03-27T00:35:51.883Z,0
2017-03-27T00:36:32.450Z,0
2017-03-27T00:37:13.126Z,0
2017-03-27T00:37:53.600Z,0
2017-03-27T00:38:34.191Z,0
2017-03-27T00:39:14.756Z,0
2017-03-27T00:39:55.326Z,0
2017-03-27T00:40:35.925Z,0
2017-03-27T00:41:16.512Z,0
2017-03-27T00:41:57.083Z,0
2017-03-27T00:42:37.671Z,0
2017-03-27T00:43:18.241Z,0
2017-03-27T00:43:58.828Z,0
2017-03-27T00:44:39.382Z,0
2017-03-27T00:45:19.968Z,0
2017-03-27T00:46:00.610Z,0
2017-03-27T00:46:41.196Z,0
2017-03-27T00:47:21.791Z,0
2017-03-27T00:48:02.374Z,0
2017-03-27T00:48:42.940Z,0
2017-03-27T00:49:23.534Z,0
2017-03-27T00:50:04.110Z,0
2017-03-27T00:50:44.700Z,0
2017-03-27T00:51:25.257Z,0
2017-03-27T00:52:05.833Z,0
2017-03-27T00:52:46.423Z,0
2017-03-27T00:53:26.988Z,0
2017-03-27T00:54:07.574Z,0
2017-03-27T00:54:48.157Z,0
2017-03-27T00:55:28.726Z,0
2017-03-27T00:56:09.323Z,0
2017-03-27T00:56:49.894Z,0
2017-03-27T00:57:30.461Z,0
2017-03-27T00:58:11.052Z,0
2017-03-27T00:58:51.635Z,0
2017-03-27T00:59:32.242Z,0
2017-03-27T01:00:12.827Z,0
2017-03-27T01:00:53.387Z,0
2017-03-27T01:01:33.963Z,0
2017-03-27T01:02:14.532Z,0
2017-03-27T01:02:55.122Z,0
2017-03-27T01:03:35.712Z,0
2017-03-27T01:04:16.306Z,0
2017-03-27T01:04:56.878Z,0
2017-03-27T01:05:37.475Z,0
2017-03-27T01:06:18.046Z,0
2017-03-27T01:06:58.617Z,0
2017-03-27T01:07:39.206Z,0
2017-03-27T01:08:19.770Z,0
2017-03-27T01:09:00.340Z,0
2017-03-27T01:09:40.917Z,0
2017-03-27T01:10:21.491Z,0
2017-03-27T01:11:02.073Z,0
2017-03-27T01:11:42.643Z,0
2017-03-27T01:12:23.208Z,0
2017-03-27T01:13:03.774Z,0
2017-03-27T01:13:44.347Z,0
2017-03-27T01:14:24.934Z,0
2017-03-27T01:15:05.570Z,0
2017-03-27T01:15:46.133Z,0
2017-03-27T01:16:26.712Z,0
2017-03-27T01:17:07.269Z,0
2017-03-27T01:17:47.849Z,0
2017-03-27T01:18:28.446Z,0
2017-03-27T01:19:09.024Z,0
2017-03-27T01:19:49.597Z,0
2017-03-27T01:20:30.182Z,0
2017-03-27T01:21:10.841Z,0
2017-03-27T01:21:51.430Z,0
2017-03-27T01:22:32.002Z,0
2017-03-27T01:23:12.567Z,0
2017-03-27T01:23:53.140Z,0
2017-03-27T01:24:33.731Z,0
2017-03-27T01:25:14.335Z,0
2017-03-27T01:25:54.905Z,0
2017-03-27T01:26:35.489Z,0
2017-03-27T01:27:16.094Z,0
2017-03-27T01:27:56.673Z,0
2017-03-27T01:28:37.270Z,0
2017-03-27T01:29:17.848Z,0
2017-03-27T01:29:58.424Z,0
2017-03-27T01:30:39.001Z,0
2017-03-27T01:31:19.600Z,0
2017-03-27T01:32:00.156Z,0
2017-03-27T01:32:40.736Z,0
2017-03-27T01:33:21.345Z,0
2017-03-27T01:34:01.942Z,0
2017-03-27T01:34:42.511Z,0
2017-03-27T01:35:23.082Z,0
2017-03-27T01:36:03.674Z,0
2017-03-27T01:36:44.267Z,0
2017-03-27T01:37:24.868Z,0
2017-03-27T01:40:07.609Z,0
2017-03-27T01:40:48.183Z,0
2017-03-27T01:41:28.751Z,0
2017-03-27T01:42:09.349Z,0
2017-03-27T01:42:49.968Z,0
2017-03-27T01:43:30.553Z,0
2017-03-27T01:44:11.136Z,0
2017-03-27T01:44:51.703Z,0
2017-03-27T01:45:32.273Z,0
2017-03-27T01:46:12.890Z,0
2017-03-27T01:46:53.536Z,0
2017-03-27T01:47:34.181Z,0
2017-03-27T01:48:14.820Z,0
2017-03-27T01:48:55.420Z,0
2017-03-27T01:49:36.020Z,0
2017-03-27T01:50:16.596Z,0
2017-03-27T01:50:57.178Z,0
2017-03-27T01:51:37.756Z,0
2017-03-27T01:52:18.337Z,0
2017-03-27T01:52:58.927Z,0
2017-03-27T01:53:39.512Z,0
2017-03-27T01:54:20.093Z,0
2017-03-27T01:55:00.670Z,0
2017-03-27T01:55:41.265Z,0
2017-03-27T01:56:21.847Z,0
2017-03-27T01:57:02.436Z,0
2017-03-27T01:57:43.083Z,0
2017-03-27T01:58:23.666Z,0
2017-03-27T01:59:04.251Z,0
2017-03-27T01:59:44.898Z,0
2017-03-27T02:00:25.461Z,0
2017-03-27T02:01:06.033Z,0
2017-03-27T02:01:46.605Z,0
2017-03-27T02:02:27.185Z,0
2017-03-27T02:03:07.771Z,0
2017-03-27T02:03:48.352Z,0
2017-03-27T02:04:28.938Z,0
2017-03-27T02:05:09.502Z,0
2017-03-27T02:05:50.061Z,0
2017-03-27T02:06:30.648Z,0
2017-03-27T02:07:11.246Z,0
2017-03-27T02:07:51.838Z,0
2017-03-27T02:08:32.412Z,0
2017-03-27T02:09:13.017Z,0
2017-03-27T02:09:53.610Z,0
2017-03-27T02:10:34.206Z,0
2017-03-27T02:11:14.770Z,0
2017-03-27T02:11:55.336Z,0
2017-03-27T02:12:35.941Z,0
2017-03-27T02:13:16.504Z,0
2017-03-27T02:13:57.075Z,0
2017-03-27T02:14:37.648Z,0
2017-03-27T02:15:18.219Z,0
2017-03-27T02:15:58.794Z,0
2017-03-27T02:16:39.369Z,0
2017-03-27T02:17:19.941Z,0
2017-03-27T02:18:00.518Z,0
2017-03-27T02:18:41.112Z,0
2017-03-27T02:19:21.654Z,0
2017-03-27T02:20:02.224Z,0
2017-03-27T02:20:42.802Z,0
2017-03-27T02:21:23.382Z,0
2017-03-27T02:22:03.995Z,0
2017-03-27T02:22:44.571Z,0
2017-03-27T02:23:25.182Z,0
2017-03-27T02:24:05.762Z,0
2017-03-27T02:24:46.353Z,0
2017-03-27T02:25:26.921Z,0
2017-03-27T02:26:07.506Z,0
2017-03-27T02:26:48.074Z,0
2017-03-27T02:27:28.685Z,0
2017-03-27T02:28:09.286Z,0
2017-03-27T02:30:37.328Z,0
2017-03-27T02:31:17.898Z,0
2017-03-27T02:31:58.508Z,0
2017-03-27T02:32:39.081Z,0
2017-03-27T02:33:19.642Z,0
2017-03-27T02:34:00.227Z,0
2017-03-27T02:34:40.815Z,0
2017-03-27T02:35:21.400Z,0
2017-03-27T02:36:01.975Z,0
2017-03-27T02:36:42.571Z,0
2017-03-27T02:37:23.142Z,0
2017-03-27T02:38:03.709Z,0
2017-03-27T02:38:44.271Z,0
2017-03-27T02:39:24.863Z,0
2017-03-27T02:40:05.453Z,0
2017-03-27T02:40:46.013Z,0
2017-03-27T02:41:26.598Z,0
2017-03-27T02:42:07.188Z,0
2017-03-27T02:42:47.786Z,0
2017-03-27T02:43:28.357Z,0
2017-03-27T02:44:08.967Z,0
2017-03-27T02:44:49.549Z,0
2017-03-27T02:45:30.122Z,0
2017-03-27T02:46:10.704Z,0
2017-03-27T02:46:51.301Z,0
2017-03-27T02:47:31.899Z,0
2017-03-27T02:48:12.474Z,0
2017-03-27T02:48:53.047Z,0
2017-03-27T02:49:33.617Z,0
2017-03-27T02:50:14.206Z,0
2017-03-27T02:50:54.792Z,0
2017-03-27T02:51:35.394Z,0
2017-03-27T02:52:15.987Z,0
2017-03-27T02:52:56.550Z,0
2017-03-27T02:53:37.119Z,0
2017-03-27T02:54:17.700Z,0
2017-03-27T02:54:58.294Z,0
2017-03-27T02:55:38.893Z,0
2017-03-27T02:56:19.493Z,0
2017-03-27T02:57:00.064Z,0
2017-03-27T02:57:40.634Z,0
2017-03-27T02:58:21.200Z,0
2017-03-27T02:59:01.777Z,0
2017-03-27T02:59:42.394Z,0
2017-03-27T03:00:22.971Z,0
2017-03-27T03:01:03.568Z,0
2017-03-27T03:01:44.137Z,0
2017-03-27T03:02:24.719Z,0
2017-03-27T03:03:05.290Z,0
2017-03-27T03:03:45.868Z,0
2017-03-27T03:04:26.466Z,0
2017-03-27T03:05:07.074Z,0
2017-03-27T03:05:47.622Z,0
2017-03-27T03:06:28.219Z,0
2017-03-27T03:07:08.778Z,0
2017-03-27T03:07:49.339Z,0
2017-03-27T03:08:29.932Z,0
2017-03-27T03:09:10.515Z,0
2017-03-27T03:09:51.108Z,0
2017-03-27T03:10:31.686Z,0
2017-03-27T03:11:12.275Z,0
2017-03-27T03:11:52.875Z,0
2017-03-27T03:12:33.462Z,0
2017-03-27T03:13:14.039Z,0
2017-03-27T03:13:54.645Z,0
2017-03-27T03:14:35.241Z,0
2017-03-27T03:15:15.849Z,0
2017-03-27T03:15:56.418Z,0
2017-03-27T03:16:36.993Z,0
2017-03-27T03:17:17.589Z,0
2017-03-27T03:17:58.187Z,0
2017-03-27T03:18:38.763Z,0
2017-03-27T03:19:19.364Z,0
2017-03-27T03:19:59.923Z,0
2017-03-27T03:20:40.534Z,0
2017-03-27T03:21:21.099Z,0
2017-03-27T03:22:01.672Z,0
2017-03-27T03:22:42.246Z,0
2017-03-27T03:23:22.834Z,0
2017-03-27T03:24:03.403Z,0
2017-03-27T03:24:43.996Z,0
2017-03-27T03:25:24.598Z,0
2017-03-27T03:26:05.216Z,0
2017-03-27T03:26:45.813Z,0
2017-03-27T03:27:26.412Z,0
2017-03-27T03:28:07.006Z,0
2017-03-27T03:28:47.610Z,0
2017-03-27T03:29:28.189Z,0
2017-03-27T03:30:08.782Z,0
2017-03-27T03:30:49.344Z,0
2017-03-27T03:31:29.922Z,0
2017-03-27T03:32:10.488Z,0
2017-03-27T03:32:51.057Z,0
2017-03-27T03:33:31.623Z,0
2017-03-27T03:34:12.219Z,0
2017-03-27T03:34:52.811Z,0
2017-03-27T03:35:33.392Z,0
2017-03-27T03:36:13.967Z,0
2017-03-27T03:36:54.539Z,0
2017-03-27T03:37:35.129Z,0
2017-03-27T03:38:15.700Z,0
2017-03-27T03:38:56.283Z,0
2017-03-27T03:39:36.869Z,0
2017-03-27T03:40:17.503Z,0
2017-03-27T03:40:58.101Z,0
2017-03-27T03:41:38.645Z,0
2017-03-27T03:42:19.207Z,0
2017-03-27T03:42:59.793Z,0
2017-03-27T03:43:40.395Z,0
2017-03-27T03:44:20.977Z,0
2017-03-27T03:45:01.555Z,0
2017-03-27T03:45:42.155Z,0
2017-03-27T03:46:22.704Z,0
2017-03-27T03:47:03.270Z,0
2017-03-27T03:47:43.855Z,0
2017-03-27T03:48:24.438Z,0
2017-03-27T03:49:05.025Z,0
2017-03-27T03:49:45.615Z,0
2017-03-27T03:50:26.245Z,0
2017-03-27T03:51:06.803Z,0
2017-03-27T03:51:47.338Z,0
2017-03-27T03:52:27.929Z,0
2017-03-27T03:53:08.568Z,0
2017-03-27T03:53:49.160Z,0
2017-03-27T03:54:29.728Z,0
2017-03-27T03:55:10.309Z,0
2017-03-27T03:55:50.876Z,0
2017-03-27T03:56:31.463Z,0
2017-03-27T03:57:12.048Z,0
2017-03-27T03:57:52.634Z,0
2017-03-27T03:58:33.219Z,0
2017-03-27T03:59:13.808Z,0
2017-03-27T03:59:54.376Z,0
2017-03-27T04:00:34.947Z,0
2017-03-27T04:01:15.523Z,0
2017-03-27T04:01:56.121Z,0
2017-03-27T04:02:36.717Z,0
2017-03-27T04:03:17.293Z,0
2017-03-27T04:03:57.871Z,0
2017-03-27T04:04:38.464Z,0
2017-03-27T04:05:19.054Z,0
2017-03-27T04:05:59.632Z,0
2017-03-27T04:06:40.239Z,0
2017-03-27T04:07:20.836Z,0
2017-03-27T04:08:01.431Z,0
2017-03-27T04:08:41.997Z,0
2017-03-27T04:09:22.582Z,0
2017-03-27T04:10:03.174Z,0
2017-03-27T04:10:43.746Z,0
2017-03-27T04:11:24.396Z,0
2017-03-27T04:12:04.996Z,0
2017-03-27T04:12:45.598Z,0
2017-03-27T04:13:26.257Z,0
2017-03-27T04:14:06.853Z,0
2017-03-27T04:14:47.449Z,0
2017-03-27T04:15:28.019Z,0
2017-03-27T04:16:08.619Z,0
2017-03-27T04:16:49.196Z,0
2017-03-27T04:17:29.778Z,0
2017-03-27T04:18:10.356Z,0
2017-03-27T04:18:50.978Z,0
2017-03-27T04:19:31.575Z,0
2017-03-27T04:20:12.157Z,4
2017-03-27T04:20:52.738Z,4
2017-03-27T04:21:33.356Z,4
2017-03-27T04:22:13.925Z,0
2017-03-27T04:22:54.494Z,0
2017-03-27T04:23:35.084Z,4
2017-03-27T04:24:15.672Z,4
2017-03-27T04:24:56.249Z,4
2017-03-27T04:25:36.830Z,4
2017-03-27T04:26:17.381Z,4
2017-03-27T04:26:57.985Z,4
2017-03-27T04:27:38.565Z,4
2017-03-27T04:28:19.129Z,8
2017-03-27T04:28:59.734Z,8
2017-03-27T04:29:40.327Z,8
2017-03-27T04:30:20.936Z,12
2017-03-27T04:31:01.507Z,12
2017-03-27T04:31:42.087Z,12
2017-03-27T04:32:22.688Z,16
2017-03-27T04:33:04.019Z,16
2017-03-27T04:33:44.598Z,16
2017-03-27T04:34:25.174Z,20
2017-03-27T04:35:05.750Z,24
2017-03-27T04:35:46.313Z,24
2017-03-27T04:36:26.893Z,24
2017-03-27T04:37:07.463Z,32
2017-03-27T04:37:48.052Z,36
2017-03-27T04:38:28.636Z,36
2017-03-27T04:39:09.208Z,40
2017-03-27T04:39:49.806Z,48
2017-03-27T04:40:30.376Z,52
2017-03-27T04:41:10.943Z,52
2017-03-27T04:41:51.508Z,60
2017-03-27T04:42:32.086Z,64
2017-03-27T04:43:12.659Z,68
2017-03-27T04:43:53.264Z,76
2017-03-27T04:44:33.865Z,80
2017-03-27T04:45:14.445Z,88
2017-03-27T04:45:55.013Z,96
2017-03-27T04:46:35.608Z,104
2017-03-27T04:47:16.195Z,112
2017-03-27T04:47:56.778Z,120
2017-03-27T04:48:37.370Z,128
2017-03-27T04:49:17.930Z,136
2017-03-27T04:49:58.518Z,144
2017-03-27T04:50:39.108Z,156
2017-03-27T04:51:19.685Z,164
2017-03-27T04:53:38.504Z,208
2017-03-27T04:54:19.170Z,216
2017-03-27T04:54:59.744Z,232
2017-03-27T04:55:40.329Z,244
2017-03-27T04:56:20.938Z,256
2017-03-27T04:57:01.589Z,268
2017-03-27T04:57:42.184Z,284
2017-03-27T04:58:22.785Z,300
2017-03-27T04:59:03.355Z,316
2017-03-27T04:59:43.987Z,328
2017-03-27T05:00:24.615Z,348
2017-03-27T05:01:05.179Z,364
2017-03-27T05:01:45.768Z,376
2017-03-27T05:02:26.348Z,396
2017-03-27T05:03:06.921Z,412
2017-03-27T05:03:47.496Z,428
2017-03-27T05:04:28.071Z,448
2017-03-27T05:05:08.634Z,464
2017-03-27T05:05:49.201Z,488
2017-03-27T05:06:29.764Z,504
2017-03-27T05:07:10.349Z,520
2017-03-27T05:07:50.906Z,540
2017-03-27T05:08:31.477Z,560
2017-03-27T05:09:12.068Z,580
2017-03-27T05:09:52.682Z,600
2017-03-27T05:10:33.308Z,620
2017-03-27T05:11:13.859Z,644
2017-03-27T05:11:54.464Z,660
2017-03-27T05:12:35.069Z,680
2017-03-27T05:13:15.672Z,700
2017-03-27T05:13:56.270Z,720
2017-03-27T05:14:36.873Z,740
2017-03-27T05:15:17.422Z,760
2017-03-27T05:15:58.023Z,780
2017-03-27T05:16:38.597Z,800
2017-03-27T05:17:19.188Z,824
2017-03-27T05:17:59.784Z,844
2017-03-27T05:18:40.396Z,860
2017-03-27T05:19:20.956Z,884
2017-03-27T05:20:01.541Z,908
2017-03-27T05:20:42.097Z,928
2017-03-27T05:21:22.706Z,948
2017-03-27T05:22:03.290Z,964
2017-03-27T05:22:43.843Z,988
2017-03-27T05:23:24.457Z,1004
2017-03-27T05:24:05.041Z,1028
2017-03-27T05:24:45.613Z,1048
2017-03-27T05:25:26.240Z,1068
2017-03-27T05:26:06.828Z,1096
2017-03-27T05:26:47.424Z,1116
2017-03-27T05:27:28.005Z,1144
2017-03-27T05:28:08.643Z,1172
2017-03-27T05:28:49.198Z,1196
2017-03-27T05:29:32.400Z,1216
2017-03-27T05:30:12.971Z,1236
2017-03-27T05:30:53.549Z,1252
2017-03-27T05:31:34.127Z,1276
2017-03-27T05:32:14.892Z,1296
2017-03-27T05:32:59.899Z,1320
2017-03-27T05:35:12.927Z,1376
2017-03-27T05:35:53.492Z,1400
2017-03-27T05:36:34.092Z,1416
2017-03-27T05:37:14.658Z,1440
2017-03-27T05:37:55.242Z,1456
2017-03-27T05:38:35.805Z,1476
2017-03-27T05:39:16.382Z,1496
2017-03-27T05:39:56.959Z,1516
2017-03-27T05:40:37.572Z,1536
2017-03-27T05:41:18.135Z,1548
2017-03-27T05:41:58.767Z,1560
2017-03-27T05:42:39.349Z,1572
2017-03-27T05:43:19.940Z,1592
2017-03-27T05:44:00.515Z,1604
2017-03-27T05:44:41.128Z,1616
2017-03-27T05:45:21.716Z,1632
2017-03-27T05:46:02.299Z,1648
2017-03-27T05:46:42.895Z,1664
2017-03-27T05:47:23.479Z,1684
2017-03-27T05:48:04.052Z,1700
2017-03-27T05:48:44.631Z,1716
2017-03-27T05:49:25.247Z,1736
2017-03-27T05:50:05.821Z,1752
2017-03-27T05:50:46.416Z,1772
2017-03-27T05:51:26.983Z,1792
2017-03-27T05:52:07.584Z,1812
2017-03-27T05:52:48.146Z,1824
2017-03-27T05:53:28.746Z,1844
2017-03-27T05:54:09.326Z,1856
2017-03-27T05:54:49.898Z,1868
2017-03-27T05:55:30.475Z,1888
2017-03-27T05:56:11.077Z,1900
2017-03-27T05:56:51.664Z,1912
2017-03-27T05:57:34.110Z,1932
2017-03-27T05:58:14.696Z,1948
2017-03-27T05:58:55.304Z,1968
2017-03-27T05:59:35.922Z,1984
2017-03-27T06:00:16.494Z,2000
2017-03-27T06:00:57.083Z,2016
2017-03-27T06:01:37.681Z,2036
2017-03-27T06:02:18.274Z,2052
2017-03-27T06:02:58.872Z,2068
2017-03-27T06:03:39.462Z,2092
2017-03-27T06:04:20.026Z,2108
2017-03-27T06:05:00.586Z,2128
2017-03-27T06:05:41.250Z,2152
2017-03-27T06:06:21.943Z,2164
2017-03-27T06:07:02.518Z,2184
2017-03-27T06:07:43.104Z,2200
2017-03-27T06:08:23.715Z,2220
2017-03-27T06:09:04.386Z,2240
2017-03-27T06:09:44.953Z,2260
2017-03-27T06:10:28.476Z,2280
2017-03-27T06:11:09.070Z,2300
2017-03-27T06:11:49.622Z,2316
2017-03-27T06:12:30.193Z,2332
2017-03-27T06:13:10.776Z,2344
2017-03-27T06:13:51.350Z,2356
2017-03-27T06:14:31.925Z,2368
2017-03-27T06:15:12.571Z,2384
2017-03-27T06:15:53.239Z,2404
2017-03-27T06:16:33.801Z,2420
2017-03-27T06:17:14.380Z,2448
2017-03-27T06:17:54.958Z,2468
2017-03-27T06:18:35.540Z,2484
2017-03-27T06:19:16.124Z,2500
2017-03-27T06:19:56.713Z,2516
2017-03-27T06:20:37.370Z,2532
2017-03-27T06:21:17.972Z,2544
2017-03-27T06:21:58.592Z,2560
2017-03-27T06:22:39.168Z,2572
2017-03-27T06:23:19.757Z,2584
2017-03-27T06:24:00.352Z,2604
2017-03-27T06:24:40.937Z,2620
2017-03-27T06:25:21.506Z,2640
2017-03-27T06:26:02.097Z,2660
2017-03-27T06:26:42.691Z,2684
2017-03-27T06:27:23.261Z,2700
2017-03-27T06:28:03.891Z,2720
2017-03-27T06:28:44.448Z,2736
2017-03-27T06:29:25.078Z,2756
2017-03-27T06:30:05.655Z,2768
2017-03-27T06:30:46.215Z,2788
2017-03-27T06:31:26.801Z,2808
2017-03-27T06:32:07.395Z,2824
2017-03-27T06:32:47.968Z,2848
2017-03-27T06:33:28.565Z,2876
2017-03-27T06:34:09.136Z,2892
2017-03-27T06:34:49.724Z,2920
2017-03-27T06:35:30.305Z,2928
2017-03-27T06:36:10.872Z,2948
2017-03-27T06:36:51.562Z,2976
2017-03-27T06:37:32.124Z,2980
2017-03-27T06:38:12.689Z,3000
2017-03-27T06:38:53.280Z,3020
2017-03-27T06:39:33.864Z,3044
2017-03-27T06:40:14.458Z,3060
2017-03-27T06:40:55.056Z,3084
2017-03-27T06:41:35.699Z,3100
2017-03-27T06:42:16.298Z,3120
2017-03-27T06:42:56.907Z,3136
2017-03-27T06:43:37.495Z,3152
2017-03-27T06:44:18.090Z,3180
2017-03-27T06:44:58.658Z,3208
2017-03-27T06:45:39.236Z,3244
2017-03-27T06:46:19.796Z,3276
2017-03-27T06:47:00.389Z,3316
2017-03-27T06:47:40.975Z,3368
2017-03-27T06:48:21.550Z,3428
2017-03-27T06:49:02.139Z,3492
2017-03-27T06:49:42.761Z,3620
2017-03-27T06:50:23.354Z,16768
2017-03-27T06:51:03.962Z,44160
2017-03-27T06:51:44.553Z,69664
2017-03-27T06:52:25.149Z,73504
2017-03-27T06:53:05.712Z,73344
2017-03-27T06:53:46.299Z,72896
2017-03-27T06:54:26.881Z,68192
2017-03-27T06:55:07.465Z,60064
2017-03-27T06:55:48.052Z,57632
2017-03-27T06:56:28.628Z,64640
2017-03-27T06:57:09.202Z,68864
2017-03-27T06:57:49.778Z,60512
2017-03-27T06:58:30.382Z,54176
2017-03-27T06:59:10.965Z,53376
2017-03-27T06:59:51.609Z,56160
2017-03-27T07:00:32.183Z,62560
2017-03-27T07:01:12.797Z,66848
2017-03-27T07:01:53.374Z,59264
2017-03-27T07:02:33.953Z,51168
2017-03-27T07:03:14.531Z,50464
2017-03-27T07:03:55.119Z,54496
2017-03-27T07:04:35.686Z,66816
2017-03-27T07:05:16.341Z,76416
2017-03-27T07:05:56.916Z,78400
2017-03-27T07:06:37.503Z,72704
2017-03-27T07:07:18.095Z,72032
2017-03-27T07:07:58.668Z,68960
2017-03-27T07:08:39.261Z,70784
2017-03-27T07:09:19.849Z,65632
2017-03-27T07:10:00.434Z,66208
2017-03-27T07:10:41.016Z,72320
2017-03-27T07:11:21.654Z,76960
2017-03-27T07:12:02.265Z,83392
2017-03-27T07:12:42.874Z,88288
2017-03-27T07:13:23.447Z,89440
2017-03-27T07:14:04.052Z,86080
2017-03-27T07:14:44.628Z,85280
2017-03-27T07:15:25.228Z,89536
2017-03-27T07:16:05.795Z,90784
2017-03-27T07:16:46.499Z,88928
2017-03-27T07:17:27.070Z,87456
2017-03-27T07:18:07.663Z,86336
2017-03-27T07:18:48.237Z,87360
2017-03-27T07:19:28.814Z,88640
2017-03-27T07:20:09.393Z,91328
2017-03-27T07:20:50.009Z,91040
2017-03-27T07:21:30.584Z,90592
2017-03-27T07:22:11.162Z,87136
2017-03-27T07:22:51.757Z,87296
2017-03-27T07:23:32.349Z,89600
2017-03-27T07:24:12.952Z,90816
2017-03-27T07:24:53.546Z,88544
2017-03-27T07:25:34.141Z,87200
2017-03-27T07:26:14.734Z,88480
2017-03-27T07:26:55.349Z,89664
2017-03-27T07:27:35.935Z,89280
2017-03-27T07:28:16.525Z,88416
2017-03-27T07:28:57.130Z,87648
2017-03-27T07:29:37.706Z,88256
2017-03-27T07:30:18.311Z,87584
2017-03-27T07:30:58.911Z,89728
2017-03-27T07:31:39.502Z,91648
2017-03-27T07:32:20.110Z,91232
2017-03-27T07:33:00.706Z,90784
2017-03-27T07:33:41.291Z,91552
2017-03-27T07:34:21.920Z,89824
2017-03-27T07:35:02.542Z,87328
2017-03-27T07:35:43.146Z,87808
2017-03-27T07:36:23.766Z,90240
2017-03-27T07:37:04.443Z,90784
2017-03-27T07:37:45.052Z,91360
2017-03-27T07:38:25.669Z,91232
2017-03-27T07:39:06.274Z,90464
2017-03-27T07:39:46.867Z,91232
2017-03-27T07:40:27.521Z,92256
2017-03-27T07:41:08.119Z,91552
2017-03-27T07:41:48.740Z,90176
2017-03-27T07:42:29.320Z,90176
2017-03-27T07:43:09.889Z,90816
2017-03-27T07:43:50.493Z,91648
2017-03-27T07:44:31.091Z,92320
2017-03-27T07:45:11.681Z,93088
2017-03-27T07:45:52.339Z,92832
2017-03-27T07:46:32.945Z,94752
2017-03-27T07:47:13.539Z,96576
2017-03-27T07:47:54.125Z,96704
2017-03-27T07:48:34.783Z,97280
2017-03-27T07:49:15.377Z,98080
2017-03-27T07:49:55.947Z,96032
2017-03-27T07:50:36.571Z,96224
2017-03-27T07:51:17.181Z,97248
2017-03-27T07:51:57.792Z,96256
2017-03-27T07:52:38.390Z,94944
2017-03-27T07:53:19.009Z,94400
2017-03-27T07:53:59.622Z,94144
2017-03-27T07:54:40.247Z,89472
2017-03-27T07:55:22.400Z,86016
2017-03-27T07:56:03.019Z,91104
2017-03-27T07:56:43.597Z,96032
2017-03-27T07:57:24.181Z,96544
2017-03-27T07:58:04.809Z,99968
2017-03-27T07:58:45.389Z,102048
2017-03-27T07:59:25.993Z,102048
2017-03-27T08:00:06.593Z,99072
2017-03-27T08:00:47.193Z,99296
2017-03-27T08:01:27.798Z,99360
2017-03-27T08:02:08.387Z,98816
2017-03-27T08:02:48.993Z,97952
2017-03-27T08:03:29.610Z,98176
2017-03-27T08:04:10.212Z,96288
2017-03-27T08:04:50.776Z,95488
2017-03-27T08:05:31.388Z,95808
2017-03-27T08:06:11.978Z,96160
2017-03-27T08:06:52.570Z,95072
2017-03-27T08:07:33.189Z,91488
2017-03-27T08:08:13.770Z,91104
2017-03-27T08:08:54.428Z,89568
2017-03-27T08:09:35.003Z,89568
2017-03-27T08:10:15.616Z,88512
2017-03-27T08:10:56.227Z,87840
2017-03-27T08:11:36.877Z,85440
2017-03-27T08:12:17.488Z,85056
2017-03-27T08:12:58.098Z,83584
2017-03-27T08:13:38.708Z,83584
2017-03-27T08:14:19.304Z,84736
2017-03-27T08:14:59.940Z,85856
2017-03-27T08:15:40.544Z,86144
2017-03-27T08:16:21.176Z,87136
2017-03-27T08:17:01.777Z,86432
2017-03-27T08:17:42.362Z,86432
2017-03-27T08:18:22.955Z,85824
2017-03-27T08:19:03.547Z,86048
2017-03-27T08:19:44.135Z,86432
2017-03-27T08:20:24.810Z,86528
2017-03-27T08:21:05.419Z,88160
2017-03-27T08:21:48.561Z,85216
2017-03-27T08:22:29.145Z,84000
2017-03-27T08:23:09.756Z,85920
2017-03-27T08:23:50.350Z,87808
2017-03-27T08:24:30.937Z,81600
2017-03-27T08:25:11.526Z,60128
2017-03-27T08:25:52.156Z,36576
2017-03-27T08:26:32.756Z,22624
2017-03-27T08:27:13.397Z,21728
2017-03-27T08:27:54.010Z,20896
2017-03-27T08:28:34.627Z,20192
2017-03-27T08:29:15.254Z,19584
2017-03-27T08:29:55.888Z,19040
2017-03-27T08:30:36.469Z,18464
2017-03-27T08:31:17.059Z,17888
2017-03-27T08:31:57.706Z,17344
2017-03-27T08:32:38.420Z,16704
2017-03-27T08:33:19.024Z,16096
2017-03-27T08:33:59.595Z,15520
2017-03-27T08:34:40.184Z,14876
2017-03-27T08:35:20.771Z,14360
2017-03-27T08:36:01.401Z,13864
2017-03-27T08:36:42.029Z,13340
2017-03-27T08:37:22.643Z,12844
2017-03-27T08:38:03.292Z,12388
2017-03-27T08:38:43.899Z,11980
2017-03-27T08:39:24.492Z,11596
2017-03-27T08:40:05.077Z,11244
2017-03-27T08:40:45.663Z,10892
2017-03-27T08:41:26.249Z,10572
2017-03-27T08:42:06.897Z,10292
2017-03-27T08:42:47.450Z,10012
2017-03-27T08:43:28.036Z,9736
2017-03-27T08:44:08.617Z,9504
2017-03-27T08:44:49.227Z,9280
2017-03-27T08:45:29.857Z,9064
2017-03-27T08:46:10.441Z,8852
2017-03-27T08:46:51.098Z,8648
2017-03-27T08:47:31.728Z,8492
2017-03-27T08:48:12.321Z,8328
2017-03-27T08:48:52.924Z,8148
2017-03-27T08:49:33.525Z,8012
2017-03-27T08:50:14.144Z,7852
2017-03-27T08:50:54.738Z,7688
2017-03-27T08:51:35.324Z,7548
2017-03-27T08:52:15.928Z,7432
2017-03-27T08:52:56.535Z,7320
2017-03-27T08:53:37.171Z,7200
2017-03-27T08:54:17.761Z,7076
2017-03-27T08:54:58.374Z,6968
2017-03-27T08:55:38.967Z,6852
2017-03-27T08:56:19.581Z,6752
2017-03-27T08:57:00.192Z,6648
2017-03-27T08:57:40.760Z,6552
2017-03-27T08:58:21.361Z,6460
2017-03-27T08:59:01.983Z,6352
2017-03-27T08:59:42.623Z,6276
2017-03-27T09:00:23.200Z,6200
2017-03-27T09:01:03.803Z,6112
2017-03-27T09:01:44.415Z,6044
2017-03-27T09:02:24.992Z,5980
2017-03-27T09:03:05.571Z,5908
2017-03-27T09:03:46.217Z,5844
2017-03-27T09:04:26.807Z,5776
2017-03-27T09:05:07.424Z,5712
2017-03-27T09:05:48.007Z,5648
2017-03-27T09:06:28.583Z,5588
2017-03-27T09:07:09.197Z,5524
2017-03-27T09:07:49.771Z,5476
2017-03-27T09:08:30.380Z,5428
2017-03-27T09:09:10.993Z,5388
2017-03-27T09:09:52.267Z,5340
2017-03-27T09:10:33.251Z,5296
2017-03-27T09:11:13.894Z,5248
2017-03-27T09:11:54.527Z,5208
2017-03-27T09:12:35.105Z,5160
2017-03-27T09:13:15.704Z,5120
2017-03-27T09:13:56.285Z,5080
2017-03-27T09:14:36.853Z,5032
2017-03-27T09:15:17.460Z,4988
2017-03-27T09:15:58.038Z,4948
2017-03-27T09:16:38.610Z,4912
2017-03-27T09:17:19.205Z,4868
2017-03-27T09:17:59.800Z,4832
2017-03-27T09:18:40.366Z,4800
2017-03-27T09:19:20.951Z,4768
2017-03-27T09:20:01.551Z,4732
2017-03-27T09:20:42.153Z,4704
2017-03-27T09:21:22.754Z,4676
2017-03-27T09:22:03.395Z,4652
2017-03-27T09:22:44.013Z,4628
2017-03-27T09:23:24.627Z,4604
2017-03-27T09:24:05.211Z,4580
2017-03-27T09:24:45.864Z,4556
2017-03-27T09:25:26.472Z,4536
2017-03-27T09:26:07.060Z,4512
2017-03-27T09:26:47.650Z,4496
2017-03-27T09:27:28.238Z,4480
2017-03-27T09:28:08.890Z,4464
2017-03-27T09:28:49.480Z,4456
2017-03-27T09:29:30.130Z,4448
2017-03-27T09:30:10.700Z,4436
2017-03-27T09:30:51.293Z,4416
2017-03-27T09:31:31.929Z,4400
2017-03-27T09:32:12.516Z,4396
2017-03-27T09:32:53.103Z,4376
2017-03-27T09:33:33.713Z,4360
2017-03-27T09:34:14.286Z,4340